createdAt,value
2019-02-17T00:01:32.314Z,12.37
2019-02-17T00:03:59.716Z,12.37
2019-02-17T00:06:27.240Z,13.08
2019-02-17T00:08:55.078Z,12.90
2019-02-17T00:11:22.651Z,14.33
2019-02-17T00:13:50.142Z,13.38
2019-02-17T00:16:17.860Z,10.43
2019-02-17T00:18:46.066Z,7.30
2019-02-17T00:21:13.881Z,6.35
2019-02-17T00:23:41.216Z,5.42
2019-02-17T00:26:08.682Z,7.25
2019-02-17T00:28:36.313Z,6.97
2019-02-17T00:31:03.769Z,6.10
2019-02-17T00:33:31.114Z,8.38
2019-02-17T00:35:58.751Z,8.10
2019-02-17T00:38:26.264Z,9.85
2019-02-17T00:40:54.119Z,10.83
2019-02-17T00:43:21.532Z,12.85
2019-02-17T00:45:48.982Z,12.25
2019-02-17T00:48:16.830Z,8.20
2019-02-17T00:50:44.669Z,9.05
2019-02-17T00:53:12.637Z,7.28
2019-02-17T00:55:40.017Z,7.03
2019-02-17T00:58:07.640Z,7.33
2019-02-17T01:00:35.050Z,7.08
2019-02-17T01:03:03.250Z,7.30
2019-02-17T01:05:30.951Z,8.30
2019-02-17T01:07:58.587Z,8.88
2019-02-17T01:10:26.083Z,10.70
2019-02-17T01:12:53.422Z,13.38
2019-02-17T01:15:20.948Z,12.20
2019-02-17T01:17:48.443Z,13.22
2019-02-17T01:20:16.764Z,13.35
2019-02-17T01:22:44.152Z,13.83
2019-02-17T01:25:11.992Z,14.53
2019-02-17T01:27:40.028Z,13.30
2019-02-17T01:30:08.197Z,11.10
2019-02-17T01:32:35.816Z,10.08
2019-02-17T01:35:03.579Z,9.23
2019-02-17T01:37:30.906Z,8.80
2019-02-17T01:39:58.248Z,8.00
2019-02-17T01:42:25.577Z,8.75
2019-02-17T01:44:53.090Z,7.78
2019-02-17T01:47:20.401Z,11.18
2019-02-17T01:49:49.062Z,10.32
2019-02-17T01:52:16.438Z,9.40
2019-02-17T01:54:43.952Z,8.80
2019-02-17T01:57:11.932Z,6.37
2019-02-17T01:59:39.421Z,6.85
2019-02-17T02:02:06.732Z,6.62
2019-02-17T02:04:34.251Z,6.40
2019-02-17T02:07:01.922Z,6.90
2019-02-17T02:09:29.751Z,6.67
2019-02-17T02:11:57.109Z,7.70
2019-02-17T02:14:24.702Z,8.80
2019-02-17T02:16:52.049Z,8.90
2019-02-17T02:19:20.288Z,9.30
2019-02-17T02:21:47.791Z,8.55
2019-02-17T02:24:15.257Z,9.70
2019-02-17T02:26:42.805Z,7.35
2019-02-17T02:29:10.833Z,6.55
2019-02-17T02:31:38.451Z,7.60
2019-02-17T02:34:06.061Z,8.50
2019-02-17T02:36:33.469Z,8.40
2019-02-17T02:39:00.820Z,9.85
2019-02-17T02:41:34.653Z,8.30
2019-02-17T02:43:58.654Z,9.20
2019-02-17T02:46:26.045Z,8.88
2019-02-17T02:48:53.645Z,8.08
2019-02-17T02:51:21.053Z,6.83
2019-02-17T02:53:48.666Z,6.10
2019-02-17T02:56:16.342Z,5.97
2019-02-17T02:58:44.110Z,5.58
2019-02-17T03:01:12.353Z,6.08
2019-02-17T03:03:39.842Z,7.53
2019-02-17T03:06:17.493Z,8.85
2019-02-17T03:08:45.209Z,8.73
2019-02-17T03:11:12.890Z,9.33
2019-02-17T03:13:40.695Z,10.15
2019-02-17T03:16:08.220Z,8.23
2019-02-17T03:18:36.082Z,8.98
2019-02-17T03:21:03.722Z,7.83
2019-02-17T03:23:31.261Z,7.83
2019-02-17T03:25:58.607Z,7.58
2019-02-17T03:28:26.433Z,7.35
2019-02-17T03:30:54.246Z,6.78
2019-02-17T03:33:21.982Z,6.10
2019-02-17T03:35:50.113Z,5.72
2019-02-17T03:38:17.859Z,5.65
2019-02-17T03:40:45.637Z,6.42
2019-02-17T03:43:13.117Z,5.83
2019-02-17T03:45:40.645Z,5.47
2019-02-17T03:48:08.368Z,5.00
2019-02-17T03:50:35.748Z,6.25
2019-02-17T03:53:03.253Z,6.40
2019-02-17T03:55:31.402Z,7.35
2019-02-17T03:57:58.836Z,7.33
2019-02-17T04:00:26.244Z,7.08
2019-02-17T04:02:53.641Z,7.35
2019-02-17T04:05:21.165Z,7.17
2019-02-17T04:07:48.864Z,8.25
2019-02-17T04:10:16.611Z,7.20
2019-02-17T04:12:43.975Z,6.80
2019-02-17T04:15:11.617Z,8.50
2019-02-17T04:17:39.004Z,8.00
2019-02-17T04:20:06.575Z,8.33
2019-02-17T04:22:34.133Z,7.92
2019-02-17T04:25:01.892Z,8.58
2019-02-17T04:27:29.250Z,7.65
2019-02-17T04:29:56.753Z,7.35
2019-02-17T04:32:24.189Z,6.45
2019-02-17T04:34:51.532Z,6.75
2019-02-17T04:37:19.917Z,6.65
2019-02-17T04:39:47.510Z,5.70
2019-02-17T04:42:15.183Z,5.62
2019-02-17T04:44:42.882Z,6.83
2019-02-17T04:47:10.632Z,6.37
2019-02-17T04:49:38.604Z,6.45
2019-02-17T04:52:06.567Z,6.58
2019-02-17T04:54:35.324Z,6.35
2019-02-17T04:57:02.639Z,6.90
2019-02-17T04:59:30.527Z,6.58
2019-02-17T05:01:58.785Z,7.45
2019-02-17T05:04:27.994Z,6.83
2019-02-17T05:06:55.774Z,7.67
2019-02-17T05:09:23.690Z,7.40
2019-02-17T05:11:51.349Z,6.55
2019-02-17T05:14:19.169Z,6.70
2019-02-17T05:16:46.549Z,7.55
2019-02-17T05:19:14.538Z,9.78
2019-02-17T05:21:42.039Z,9.20
2019-02-17T05:24:09.795Z,10.10
2019-02-17T05:26:37.520Z,8.80
2019-02-17T05:29:05.058Z,9.03
2019-02-17T05:31:32.523Z,9.28
2019-02-17T05:34:00.035Z,8.38
2019-02-17T05:36:27.523Z,8.70
2019-02-17T05:38:55.028Z,9.10
2019-02-17T05:41:22.993Z,7.70
2019-02-17T05:43:50.489Z,8.03
2019-02-17T05:46:17.861Z,6.75
2019-02-17T05:48:45.635Z,7.50
2019-02-17T05:51:13.729Z,8.43
2019-02-17T05:53:41.199Z,7.67
2019-02-17T05:56:08.720Z,6.60
2019-02-17T05:58:36.285Z,6.67
2019-02-17T06:01:04.896Z,7.15
2019-02-17T06:03:33.194Z,7.40
2019-02-17T06:06:00.562Z,7.47
2019-02-17T06:08:28.012Z,8.45
2019-02-17T06:10:55.510Z,8.48
2019-02-17T06:13:23.301Z,8.70
2019-02-17T06:15:50.665Z,9.23
2019-02-17T06:18:18.175Z,9.70
2019-02-17T06:20:45.712Z,10.35
2019-02-17T06:23:13.856Z,10.10
2019-02-17T06:25:41.342Z,10.68
2019-02-17T06:28:08.831Z,10.82
2019-02-17T06:30:36.552Z,10.23
2019-02-17T06:33:03.957Z,8.35
2019-02-17T06:35:31.445Z,7.80
2019-02-17T06:37:59.179Z,11.05
2019-02-17T06:40:26.681Z,20.05
2019-02-17T06:42:55.024Z,19.62
2019-02-17T06:45:23.508Z,19.77
2019-02-17T06:47:51.267Z,20.43
2019-02-17T06:50:18.784Z,17.17
2019-02-17T06:52:46.378Z,20.70
2019-02-17T06:55:33.395Z,20.10
2019-02-17T06:58:01.225Z,21.52
2019-02-17T07:00:34.524Z,24.45
2019-02-17T07:03:05.104Z,17.50
2019-02-17T07:06:00.967Z,17.65
2019-02-17T07:08:28.403Z,15.95
2019-02-17T07:10:56.044Z,16.35
2019-02-17T07:13:23.377Z,14.60
2019-02-17T07:15:51.562Z,15.50
2019-02-17T07:18:18.955Z,16.00
2019-02-17T07:20:46.999Z,18.82
2019-02-17T07:23:15.268Z,16.77
2019-02-17T07:25:43.031Z,12.75
2019-02-17T07:28:10.553Z,12.43
2019-02-17T07:30:37.877Z,10.35
2019-02-17T07:33:05.615Z,11.22
2019-02-17T07:35:33.105Z,10.80
2019-02-17T07:38:00.574Z,11.35
2019-02-17T07:40:28.386Z,16.87
2019-02-17T07:42:55.715Z,14.85
2019-02-17T07:45:23.245Z,14.60
2019-02-17T07:47:51.380Z,13.50
2019-02-17T07:50:19.130Z,13.53
2019-02-17T07:52:46.698Z,13.93
2019-02-17T07:55:14.447Z,22.67
2019-02-17T07:57:42.316Z,28.87
2019-02-17T08:00:09.803Z,27.80
2019-02-17T08:02:37.671Z,33.65
2019-02-17T08:05:05.318Z,41.02
2019-02-17T08:07:33.645Z,34.13
2019-02-17T08:10:01.145Z,23.52
2019-02-17T08:12:28.579Z,21.50
2019-02-17T08:14:55.925Z,19.57
2019-02-17T08:17:23.644Z,20.08
2019-02-17T08:19:51.140Z,17.57
2019-02-17T08:22:18.849Z,15.23
2019-02-17T08:24:46.505Z,14.13
2019-02-17T08:27:14.370Z,15.03
2019-02-17T08:29:41.850Z,11.38
2019-02-17T08:32:09.168Z,10.38
2019-02-17T08:34:36.691Z,7.05
2019-02-17T08:37:04.081Z,8.53
2019-02-17T08:39:31.579Z,7.80
2019-02-17T08:41:59.061Z,7.22
2019-02-17T08:44:27.430Z,7.30
2019-02-17T08:46:54.950Z,14.33
2019-02-17T08:49:22.720Z,14.40
2019-02-17T08:51:50.113Z,8.95
2019-02-17T08:54:17.582Z,7.12
2019-02-17T08:56:45.116Z,4.60
2019-02-17T08:59:12.623Z,4.40
2019-02-17T09:01:40.541Z,4.40
2019-02-17T09:04:08.194Z,4.85
2019-02-17T09:06:35.701Z,4.50
2019-02-17T09:09:05.066Z,3.97
2019-02-17T09:11:33.036Z,4.10
2019-02-17T09:14:00.421Z,4.55
2019-02-17T09:16:28.038Z,5.03
2019-02-17T09:18:55.679Z,3.77
2019-02-17T09:21:23.099Z,4.20
2019-02-17T09:23:51.200Z,3.93
2019-02-17T09:26:18.871Z,4.15
2019-02-17T09:28:46.265Z,4.43
2019-02-17T09:31:13.768Z,3.93
2019-02-17T09:33:41.141Z,4.70
2019-02-17T09:36:08.512Z,4.90
2019-02-17T09:38:35.932Z,4.90
2019-02-17T09:41:03.715Z,4.53
2019-02-17T09:43:31.117Z,4.67
2019-02-17T09:45:58.796Z,4.70
2019-02-17T09:48:26.145Z,4.70
2019-02-17T09:50:53.627Z,4.70
2019-02-17T09:53:21.033Z,4.10
2019-02-17T09:55:48.868Z,4.93
2019-02-17T09:58:16.689Z,4.70
2019-02-17T10:00:45.552Z,4.43
2019-02-17T10:03:13.488Z,5.07
2019-02-17T10:05:40.870Z,5.20
2019-02-17T10:08:08.480Z,4.33
2019-02-17T10:10:35.967Z,5.37
2019-02-17T10:13:03.371Z,4.50
2019-02-17T10:15:31.462Z,4.80
2019-02-17T10:17:58.983Z,5.27
2019-02-17T10:20:26.807Z,4.50
2019-02-17T10:22:54.302Z,4.63
2019-02-17T10:25:22.133Z,4.63
2019-02-17T10:27:50.051Z,4.20
2019-02-17T10:30:17.401Z,3.90
2019-02-17T10:32:45.393Z,4.70
2019-02-17T10:35:13.861Z,3.90
2019-02-17T10:37:41.806Z,4.20
2019-02-17T10:40:11.191Z,4.23
2019-02-17T10:42:38.882Z,4.43
2019-02-17T10:45:07.298Z,4.10
2019-02-17T10:47:35.859Z,4.30
2019-02-17T10:50:04.085Z,3.73
2019-02-17T10:52:31.793Z,5.90
2019-02-17T10:55:00.225Z,5.53
2019-02-17T10:57:29.237Z,5.30
2019-02-17T10:59:57.197Z,5.47
2019-02-17T11:02:24.793Z,4.70
2019-02-17T11:04:52.805Z,5.20
2019-02-17T11:07:20.561Z,5.67
2019-02-17T11:09:48.198Z,5.00
2019-02-17T11:12:15.606Z,4.97
2019-02-17T11:14:43.134Z,5.70
2019-02-17T11:17:10.916Z,4.97
2019-02-17T11:19:38.316Z,4.83
2019-02-17T11:22:06.831Z,5.30
2019-02-17T11:24:34.426Z,5.90
2019-02-17T11:27:01.937Z,4.80
2019-02-17T11:29:29.465Z,4.83
2019-02-17T11:31:57.386Z,5.07
2019-02-17T11:34:24.879Z,4.53
2019-02-17T11:36:52.784Z,4.67
2019-02-17T11:39:20.889Z,4.20
2019-02-17T11:41:48.384Z,4.50
2019-02-17T11:44:15.775Z,4.20
2019-02-17T11:46:43.210Z,4.33
2019-02-17T11:49:11.237Z,4.77
2019-02-17T11:51:39.748Z,4.30
2019-02-17T11:54:07.369Z,5.10
2019-02-17T11:56:34.713Z,5.57
2019-02-17T11:59:02.303Z,5.07
2019-02-17T12:01:29.838Z,4.67
2019-02-17T12:03:57.821Z,5.10
2019-02-17T12:06:25.284Z,5.73
2019-02-17T12:08:53.191Z,5.10
2019-02-17T12:11:20.773Z,5.23
2019-02-17T12:13:48.591Z,5.27
2019-02-17T12:16:16.071Z,5.20
2019-02-17T12:18:44.015Z,6.07
2019-02-17T12:21:30.998Z,5.47
2019-02-17T12:24:16.026Z,4.80
2019-02-17T12:26:49.804Z,5.07
2019-02-17T12:29:22.663Z,5.40
2019-02-17T12:31:50.467Z,6.10
2019-02-17T12:34:17.988Z,4.90
2019-02-17T12:36:45.451Z,4.77
2019-02-17T12:39:15.028Z,5.30
2019-02-17T12:41:42.284Z,4.50
2019-02-17T12:44:10.005Z,4.97
2019-02-17T12:46:38.034Z,4.50
2019-02-17T12:49:06.149Z,4.27
2019-02-17T12:51:33.533Z,4.80
2019-02-17T12:54:01.262Z,4.73
2019-02-17T12:56:28.645Z,4.77
2019-02-17T12:58:56.123Z,4.97
2019-02-17T13:01:23.645Z,5.37
2019-02-17T13:03:51.888Z,4.70
2019-02-17T13:06:19.400Z,4.13
2019-02-17T13:08:47.032Z,4.60
2019-02-17T13:11:14.973Z,4.73
2019-02-17T13:13:42.335Z,4.70
2019-02-17T13:16:10.175Z,4.43
2019-02-17T13:18:37.638Z,3.70
2019-02-17T13:21:05.174Z,3.80
2019-02-17T13:23:32.870Z,4.00
2019-02-17T13:26:00.379Z,4.30
2019-02-17T13:28:27.779Z,4.13
2019-02-17T13:30:55.185Z,4.60
2019-02-17T13:33:22.546Z,4.40
2019-02-17T13:35:50.324Z,4.27
2019-02-17T13:38:17.768Z,4.60
2019-02-17T13:40:45.280Z,5.10
2019-02-17T13:43:12.790Z,3.80
2019-02-17T13:45:40.900Z,4.30
2019-02-17T13:48:08.194Z,3.87
2019-02-17T13:50:36.049Z,4.23
2019-02-17T13:53:11.342Z,4.87
2019-02-17T13:55:32.811Z,4.03
2019-02-17T13:58:00.337Z,4.93
2019-02-17T14:00:28.190Z,4.20
2019-02-17T14:02:55.517Z,4.00
2019-02-17T14:05:23.055Z,4.27
2019-02-17T14:07:51.919Z,5.50
2019-02-17T14:10:20.326Z,5.10
2019-02-17T14:12:48.279Z,4.40
2019-02-17T14:15:15.792Z,4.27
2019-02-17T14:17:44.380Z,4.27
2019-02-17T14:20:12.734Z,4.33
2019-02-17T14:22:40.078Z,4.87
2019-02-17T14:25:07.893Z,4.90
2019-02-17T14:27:35.439Z,5.17
2019-02-17T14:30:03.586Z,4.60
2019-02-17T14:32:31.121Z,3.80
2019-02-17T14:34:58.662Z,4.30
2019-02-17T14:37:26.195Z,4.60
2019-02-17T14:39:53.868Z,4.60
2019-02-17T14:42:21.313Z,4.73
2019-02-17T14:44:49.053Z,4.83
2019-02-17T14:47:16.592Z,4.00
2019-02-17T14:49:44.041Z,4.10
2019-02-17T14:52:11.850Z,4.47
2019-02-17T14:54:39.636Z,5.90
2019-02-17T14:57:07.786Z,4.67
2019-02-17T14:59:35.218Z,4.50
2019-02-17T15:02:02.991Z,4.40
2019-02-17T15:04:30.752Z,3.70
2019-02-17T15:06:58.171Z,5.20
2019-02-17T15:09:26.016Z,4.50
2019-02-17T15:11:53.508Z,4.30
2019-02-17T15:14:20.917Z,4.10
2019-02-17T15:16:49.116Z,4.10
2019-02-17T15:19:16.836Z,4.40
2019-02-17T15:21:44.541Z,3.67
2019-02-17T15:24:11.873Z,3.30
2019-02-17T15:26:40.271Z,3.50
2019-02-17T15:29:07.765Z,3.17
2019-02-17T15:31:35.430Z,3.97
2019-02-17T15:34:02.892Z,3.17
2019-02-17T15:36:30.431Z,4.03
2019-02-17T15:38:58.137Z,3.80
2019-02-17T15:41:25.666Z,3.80
2019-02-17T15:43:53.442Z,3.50
2019-02-17T15:46:20.780Z,3.33
2019-02-17T15:48:48.384Z,4.93
2019-02-17T15:51:16.037Z,6.33
2019-02-17T15:53:43.426Z,5.87
2019-02-17T15:56:10.855Z,5.53
2019-02-17T15:58:38.456Z,5.77
2019-02-17T16:01:06.286Z,5.37
2019-02-17T16:03:33.804Z,5.60
2019-02-17T16:06:01.281Z,5.67
2019-02-17T16:08:28.976Z,5.10
2019-02-17T16:10:56.354Z,6.63
2019-02-17T16:13:24.211Z,5.70
2019-02-17T16:15:52.245Z,6.00
2019-02-17T16:18:19.674Z,5.90
2019-02-17T16:20:47.456Z,5.90
2019-02-17T16:23:15.141Z,5.77
2019-02-17T16:25:43.105Z,5.50
2019-02-17T16:28:10.459Z,5.90
2019-02-17T16:30:37.926Z,5.37
2019-02-17T16:33:05.697Z,5.10
2019-02-17T16:35:33.751Z,6.47
2019-02-17T16:38:01.206Z,14.67
2019-02-17T16:40:28.717Z,24.83
2019-02-17T16:42:56.324Z,23.17
2019-02-17T16:45:24.182Z,21.53
2019-02-17T16:47:51.504Z,13.60
2019-02-17T16:50:19.077Z,8.03
2019-02-17T16:52:46.744Z,6.20
2019-02-17T16:55:14.113Z,6.10
2019-02-17T16:57:43.167Z,5.47
2019-02-17T17:00:13.846Z,3.90
2019-02-17T17:02:41.452Z,5.70
2019-02-17T17:05:09.155Z,8.00
2019-02-17T17:07:37.467Z,10.70
2019-02-17T17:10:05.284Z,9.13
2019-02-17T17:12:33.026Z,8.27
2019-02-17T17:15:00.950Z,8.60
2019-02-17T17:17:28.864Z,8.90
2019-02-17T17:19:56.764Z,12.93
2019-02-17T17:22:24.138Z,14.93
2019-02-17T17:24:51.629Z,15.47
2019-02-17T17:27:18.978Z,10.23
2019-02-17T17:29:47.012Z,7.00
2019-02-17T17:32:14.579Z,5.17
2019-02-17T17:34:42.648Z,4.73
2019-02-17T17:37:10.056Z,7.97
2019-02-17T17:39:38.021Z,16.63
2019-02-17T17:42:06.248Z,10.80
2019-02-17T17:44:33.667Z,9.03
2019-02-17T17:47:02.647Z,6.00
2019-02-17T17:49:31.582Z,5.93
2019-02-17T17:51:59.415Z,5.47
2019-02-17T17:54:26.993Z,6.90
2019-02-17T17:56:54.889Z,6.50
2019-02-17T17:59:22.648Z,8.13
2019-02-17T18:01:50.443Z,7.43
2019-02-17T18:04:17.968Z,7.07
2019-02-17T18:06:45.598Z,5.50
2019-02-17T18:09:13.023Z,7.23
2019-02-17T18:11:40.719Z,5.80
2019-02-17T18:14:10.147Z,6.57
2019-02-17T18:16:37.645Z,5.93
2019-02-17T18:19:05.350Z,7.03
2019-02-17T18:21:33.440Z,7.67
2019-02-17T18:24:01.320Z,6.53
2019-02-17T18:26:28.738Z,5.53
2019-02-17T18:28:56.836Z,5.20
2019-02-17T18:31:24.180Z,3.50
2019-02-17T18:33:51.514Z,3.17
2019-02-17T18:36:19.313Z,4.40
2019-02-17T18:38:46.952Z,4.53
2019-02-17T18:41:14.629Z,5.20
2019-02-17T18:43:42.394Z,5.50
2019-02-17T18:46:10.155Z,4.97
2019-02-17T18:48:38.223Z,5.93
2019-02-17T18:51:06.409Z,6.90
2019-02-17T18:53:33.876Z,7.20
2019-02-17T18:56:01.887Z,10.03
2019-02-17T18:58:29.839Z,9.00
2019-02-17T19:00:57.317Z,7.50
2019-02-17T19:03:25.830Z,7.57
2019-02-17T19:05:53.287Z,5.47
2019-02-17T19:08:20.624Z,4.67
2019-02-17T19:10:48.432Z,5.30
2019-02-17T19:13:15.899Z,10.30
2019-02-17T19:15:43.408Z,9.50
2019-02-17T19:18:10.785Z,7.43
2019-02-17T19:20:38.472Z,5.97
2019-02-17T19:23:06.325Z,7.20
2019-02-17T19:25:34.701Z,9.30
2019-02-17T19:28:03.653Z,9.13
2019-02-17T19:30:31.400Z,11.27
2019-02-17T19:32:59.108Z,8.77
2019-02-17T19:35:26.630Z,6.80
2019-02-17T19:37:54.744Z,6.77
2019-02-17T19:40:23.275Z,6.40
2019-02-17T19:42:51.240Z,7.50
2019-02-17T19:45:18.634Z,10.13
2019-02-17T19:47:46.535Z,17.83
2019-02-17T19:50:15.342Z,18.53
2019-02-17T19:52:43.077Z,19.00
2019-02-17T19:55:10.682Z,18.13
2019-02-17T19:57:39.364Z,16.00
2019-02-17T20:00:10.647Z,15.47
2019-02-17T20:02:51.595Z,13.63
2019-02-17T20:05:21.142Z,13.30
2019-02-17T20:07:49.027Z,12.80
2019-02-17T20:10:16.783Z,11.33
2019-02-17T20:12:44.529Z,10.10
2019-02-17T20:15:12.499Z,10.90
2019-02-17T20:17:41.401Z,11.67
2019-02-17T20:20:09.570Z,11.93
2019-02-17T20:22:37.240Z,11.43
2019-02-17T20:25:05.190Z,11.93
2019-02-17T20:27:32.827Z,12.90
2019-02-17T20:30:01.033Z,11.20
2019-02-17T20:32:28.554Z,6.30
2019-02-17T20:34:56.527Z,5.20
2019-02-17T20:37:27.042Z,4.77
2019-02-17T20:39:55.370Z,5.97
2019-02-17T20:42:23.289Z,5.50
2019-02-17T20:44:50.962Z,6.17
2019-02-17T20:47:19.095Z,7.70
2019-02-17T20:49:46.688Z,7.73
2019-02-17T20:52:14.593Z,9.77
2019-02-17T20:54:42.294Z,9.80
2019-02-17T20:57:10.181Z,9.47
2019-02-17T20:59:37.633Z,9.50
2019-02-17T21:02:05.371Z,8.70
2019-02-17T21:04:32.901Z,8.67
2019-02-17T21:07:00.698Z,7.80
2019-02-17T21:09:28.391Z,7.67
2019-02-17T21:11:56.148Z,8.90
2019-02-17T21:14:23.528Z,9.33
2019-02-17T21:16:51.208Z,10.13
2019-02-17T21:19:18.962Z,9.63
2019-02-17T21:21:47.190Z,9.00
2019-02-17T21:24:17.776Z,10.83
2019-02-17T21:26:45.448Z,13.37
2019-02-17T21:29:12.847Z,12.37
2019-02-17T21:31:40.647Z,12.57
2019-02-17T21:34:08.973Z,8.80
2019-02-17T21:36:36.508Z,7.97
2019-02-17T21:39:04.687Z,7.00
2019-02-17T21:41:34.090Z,6.67
2019-02-17T21:44:01.605Z,4.60
2019-02-17T21:46:29.004Z,5.37
2019-02-17T21:48:56.380Z,5.33
2019-02-17T21:51:43.238Z,7.00
2019-02-17T21:54:10.884Z,5.63
2019-02-17T21:56:38.271Z,4.43
2019-02-17T21:59:05.876Z,4.53
2019-02-17T22:01:33.941Z,4.00
2019-02-17T22:04:01.756Z,4.30
2019-02-17T22:06:33.596Z,4.70
2019-02-17T22:08:59.010Z,4.50
2019-02-17T22:11:26.533Z,5.80
2019-02-17T22:13:54.119Z,5.40
2019-02-17T22:16:22.740Z,5.63
2019-02-17T22:18:51.169Z,5.10
2019-02-17T22:21:18.982Z,6.07
2019-02-17T22:23:46.516Z,7.33
2019-02-17T22:26:13.904Z,6.53
2019-02-17T22:28:41.993Z,8.00
2019-02-17T22:31:09.496Z,8.10
2019-02-17T22:33:36.855Z,7.90
2019-02-17T22:36:04.343Z,8.70
2019-02-17T22:38:32.325Z,9.33
2019-02-17T22:40:59.782Z,7.27
2019-02-17T22:43:28.132Z,6.07
2019-02-17T22:45:55.922Z,4.67
2019-02-17T22:48:23.780Z,4.07
2019-02-17T22:50:51.853Z,3.27
2019-02-17T22:53:19.624Z,3.70
2019-02-17T22:55:47.181Z,3.03
2019-02-17T22:58:14.605Z,3.53
2019-02-17T23:00:57.683Z,3.43
2019-02-17T23:03:27.665Z,4.07
2019-02-17T23:05:55.167Z,3.23
2019-02-17T23:08:22.786Z,3.27
2019-02-17T23:10:50.430Z,3.50
2019-02-17T23:13:18.006Z,6.63
2019-02-17T23:15:45.845Z,5.50
2019-02-17T23:18:13.250Z,5.67
2019-02-17T23:20:40.873Z,5.23
2019-02-17T23:23:08.562Z,4.10
2019-02-17T23:25:36.031Z,3.33
2019-02-17T23:28:03.369Z,4.50
2019-02-17T23:30:30.849Z,3.50
2019-02-17T23:32:58.175Z,3.27
2019-02-17T23:35:25.534Z,3.50
2019-02-17T23:37:52.973Z,2.93
2019-02-17T23:40:20.365Z,2.70
2019-02-17T23:42:47.872Z,2.43
2019-02-17T23:45:15.404Z,2.67
2019-02-17T23:47:42.857Z,2.70
2019-02-17T23:50:11.077Z,3.20
2019-02-17T23:52:38.621Z,2.47
2019-02-17T23:55:06.284Z,2.57
2019-02-17T23:57:33.804Z,2.60
